Tiempo atmosférico en la estación meteorológica de Lorca, Murcia (320 m.)



Fecha
DESCASC
Temp. máxima en grados centígrados (hora)
DESCASC
Temp. mínima en grados centígrados (hora)
DESCASC
Temp. media en grados centígrados
DESCASC
Racha de viento máxima en m/sg (hora)
DESCASC
Velocidad máxima media en intervalos de 10 minutos(hora)
DESCASC
Precipitaciones diarias en mm
DESCASC
Precipitaciones de 00:00 a 06:00 en mm
DESCASC
Precipitaciones de 06:00 a 12:00 en mm
DESCASC
Precipitaciones de 12:00 a 18:00 en mm
DESCASC
Precipitaciones de 18:00 a 24:00 en mm
DESCASC
22-01-2020 11.3 (12:40) 5 (04:50) 8.2 6.67 (15:40) 2.78 (11:30) 0.3 0 0 0.3 0
21-01-2020 9.9 (16:40) 5.2 (07:40) 7.5 10 (00:40) 5.28 (12:20) 26.7 6.6 10.6 0.3 9.2
20-01-2020 6.5 (15:40) 3.1 (07:50) 4.8 11.94 (02:50) 5.83 (08:30) 9.1 0.3 2.6 4.2 2
19-01-2020 13.6 (13:40) 3.9 (00:00) 8.8 11.67 (12:00) 5.83 (12:00) 1.3 0 0.3 0 1
18-01-2020 11.8 (17:00) 5.5 (00:00) 8.7 4.72 (17:40) 2.78 (17:30) 0.9 0 0.8 0.1 0
17-01-2020 20.2 (14:40) 2.5 (00:00) 11.4 5.28 (14:00) 2.22 (05:50) 0 0 0 0 0
16-01-2020 18.4 (15:00) 2 (00:00) 10.2 5.56 (05:50) 2.22 (15:30) 0 0 0 0 0
15-01-2020 16.8 (15:50) 2.1 (00:00) 9.4 6.67 (06:00) 3.89 (06:00) 0 0 0 0 0
14-01-2020 15.7 (15:10) -0.4 (00:00) 7.6 3.89 (05:50) 1.67 (05:50) 0 0 0 0 0
13-01-2020 14.7 (14:50) -1.2 (-00:0) 6.7 4.72 (16:00) 2.22 (16:00) 0 0 0 0 0
12-01-2020 17 (15:10) -0.2 (00:00) 8.4 3.89 (06:50) 2.22 (06:50) 0 0 0 0 0
11-01-2020 15.7 (14:20) 4 (00:00) 9.8 8.06 (04:20) 3.61 (04:40) 0 0 0 0 0
10-01-2020 14.7 (16:00) 3.8 (00:00) 9.2 8.89 (12:50) 4.44 (10:00) 0 0 0 0 0
09-01-2020 15.1 (15:50) 4.3 (00:00) 9.7 5 (06:20) 2.78 (06:20) 0 0 0 0 0
08-01-2020 15.2 (15:40) 1 (00:00) 8.1 6.11 (13:50) 2.5 (13:50) 0 0 0 0 0
07-01-2020 16.1 (15:00) -0.2 (00:00) 8 4.17 (17:00) 1.94 (03:50) 0 0 0 0 0
06-01-2020 16 (15:00) -0.2 (00:00) 7.9 3.33 (03:40) 1.67 (03:20) 0 0 0 0 0
05-01-2020 16.3 (16:10) 1 (00:00) 8.6 2.5 (18:30) 1.11 (05:00) 0 0 0 0 0
04-01-2020 12.3 (15:20) 3.2 (00:00) 7.8 5 (09:00) 1.94 (09:00) 0 0 0 0 0
03-01-2020 17.3 (15:30) -0.1 (00:00) 8.6 4.72 (23:30) 2.78 (23:30) 0 0 0 0 0
02-01-2020 10.7 (15:40) 4.7 (00:00) 7.7 3.33 (10:00) 1.39 (10:00) 0 0 0 0 0
01-01-2020 16.4 (15:20) 2 (00:00) 9.2 3.33 (13:10) 1.67 (13:10) 0 0 0 0 0
31-12-2019 14.1 (15:20) 2.7 (00:00) 8.4 4.72 (06:30) 1.94 (06:40) 0 0 0 0 0
30-12-2019 14 (15:40) 5.1 (00:00) 9.5 5.28 (11:50) 2.78 (11:20) 0 0 0 0 0
29-12-2019 15.5 (15:20) 3.9 (00:00) 9.7 5 (11:10) 2.78 (10:10) 0 0 0 0 0
28-12-2019 18.5 (14:50) 3.2 (00:00) 10.9 4.72 (17:00) 2.22 (17:30) 0 0 0 0 0
27-12-2019 17.6 (15:50) 7.1 (00:00) 12.4 4.44 (06:30) 2.5 (05:50) 0 0 0 0 0
26-12-2019 23.7 (13:40) 6.8 (00:00) 15.3 5.28 (07:40) 3.33 (20:40) 0 0 0 0 0
25-12-2019 22.2 (16:30) 4.2 (00:00) 13.2 3.33 (01:30) 1.39 (01:30) 0 0 0 0 0

Gráficas

Temp. máximas Temp. mínimas Temp. medias Precipitaciones Rachas de viento máximas Velocidades máximas media en intervalos de 10 minutos

Datos horarios

Fecha y hora oficial Temperatura (ºC) Velocidad del viento (km/h) Dirección del viento Racha (km/h) Dirección de racha Precipitación (mm) Presión (hPa) Tendencia (hPa) Humedad (%)
2020-01-23 23:00:00 7.8 4 Norte 8 Norte 0 -- -- 91
2020-01-23 22:00:00 8 0 Calma 10 Nordeste 0 -- -- 92
2020-01-23 21:00:00 9.3 6 Nordeste 12 Nordeste 0 -- -- 92
2020-01-23 20:00:00 9.2 7 Nordeste 14 Nordeste 0 -- -- 90
2020-01-23 19:00:00 9.9 3 Nordeste 10 Este 0 -- -- 83
2020-01-23 18:00:00 11.6 2 Este 15 Nordeste 0 -- -- 74
2020-01-23 17:00:00 13 4 Nordeste 14 Nordeste 0 -- -- 68
2020-01-23 16:00:00 14.2 4 Nordeste 14 Nordeste 0 -- -- 65
2020-01-23 15:00:00 13.9 3 Este 10 Nordeste 0 -- -- 65
2020-01-23 14:00:00 12.8 3 Nordeste 10 Nordeste 0 -- -- 67
2020-01-23 13:00:00 12 4 Nordeste 11 Nordeste 0 -- -- 72
2020-01-23 12:00:00 10.8 3 Nordeste 8 Nordeste 0 -- -- 80
2020-01-23 11:00:00 9.4 4 Norte 9 Norte 0 -- -- 84
2020-01-23 10:00:00 7.1 0 Calma 4 Oeste 0 -- -- 91
2020-01-23 09:00:00 5.3 0 Calma 5 Sudoeste 0 -- -- 93
2020-01-23 08:00:00 5.2 0 Calma 5 Sudoeste 0 -- -- 92
2020-01-23 07:00:00 4.9 0 Calma 5 Oeste 0 -- -- 92
2020-01-23 06:00:00 5.2 2 Sur 7 Noroeste 0 -- -- 91
2020-01-23 05:00:00 5.1 4 Noroeste 8 Noroeste 0 -- -- 91
2020-01-23 04:00:00 4.6 0 Calma 9 Noroeste 0 -- -- 91
2020-01-23 03:00:00 4.8 2 Norte 5 Noroeste 0 -- -- 91
2020-01-23 02:00:00 4.8 0 Calma 9 Norte 0 -- -- 90
2020-01-23 01:00:00 6 4 Norte 11 Noroeste 0 -- -- 88
2020-01-23 00:00:00 5.6 0 Calma 9 Noroeste 0 -- -- 88
2020-01-22 23:00:00 6.5 3 Noroeste 14 Noroeste 0 -- -- 81
2020-01-22 22:00:00 6.5 4 Norte 11 Noroeste 0 -- -- 83
2020-01-22 21:00:00 6.2 2 Noroeste 6 Oeste 0 -- -- 87
2020-01-22 20:00:00 7.4 2 Oeste 10 Noroeste 0 -- -- 80
2020-01-22 19:00:00 8.5 3 Norte 12 Noroeste 0 -- -- 75
2020-01-22 18:00:00 9.5 4 Noroeste 13 Noroeste 0 -- -- 73
2020-01-22 17:00:00 9.5 6 Noroeste 18 Noroeste 0 -- -- 74
2020-01-22 16:00:00 9.6 10 Noroeste 24 Noroeste 0 -- -- 74
2020-01-22 15:00:00 9.3 4 Norte 19 Oeste 0 -- -- 78
2020-01-22 14:00:00 8.3 8 Oeste 20 Oeste 0.3 -- -- 74
2020-01-22 13:00:00 11.1 4 Nordeste 15 Nordeste 0 -- -- 72
2020-01-22 12:00:00 10.8 8 Nordeste 15 Nordeste 0 -- -- 77
2020-01-22 11:00:00 10.1 6 Nordeste 14 Nordeste 0 -- -- 83
2020-01-22 10:00:00 8 0 Calma 8 Nordeste 0 -- -- 95
2020-01-22 09:00:00 6.9 0 Calma 7 Nordeste 0 -- -- 95
2020-01-22 08:00:00 6.5 3 Nordeste 13 Nordeste 0 -- -- 95
2020-01-22 07:00:00 6.1 5 Nordeste 12 Nordeste 0 -- -- 94
2020-01-22 06:00:00 5.7 6 Nordeste 12 Nordeste 0 -- -- 94
2020-01-22 05:00:00 5.3 0 Calma 5 Nordeste 0 -- -- 95
2020-01-22 04:00:00 5.8 0 Calma 6 Nordeste 0 -- -- 95
2020-01-22 03:00:00 6.5 0 Calma 5 Nordeste 0 -- -- 95
2020-01-22 02:00:00 6.6 2 Nordeste 5 Nordeste 0 -- -- 95
2020-01-22 01:00:00 6.9 4 Nordeste 9 Nordeste 0 -- -- 95
2020-01-22 00:00:00 6.8 2 Nordeste 8 Nordeste 0 -- -- 95
2020-01-21 23:00:00 7.1 0 Calma 8 Norte 0.1 -- -- 95
2020-01-21 22:00:00 7.2 5 Nordeste 12 Norte 0.4 -- -- 93
2020-01-21 21:00:00 7.2 5 Nordeste 9 Nordeste 3.3 -- -- 93
2020-01-21 20:00:00 7.5 0 Calma 5 Noroeste 4.2 -- -- 93
2020-01-21 19:00:00 7.6 0 Calma 5 Sur 1.2 -- -- 91
2020-01-21 18:00:00 8.5 0 Calma 8 Norte 0.2 -- -- 84
2020-01-21 17:00:00 9.5 3 Norte 7 Nordeste 0 -- -- 74
2020-01-21 16:00:00 9.8 4 Norte 10 Noroeste 0 -- -- 73
2020-01-21 15:00:00 8.9 5 Norte 18 Noroeste 0 -- -- 72
2020-01-21 14:00:00 7.7 11 Noroeste 28 Noroeste 0 -- -- 75
2020-01-21 13:00:00 6.2 16 Noroeste 34 Noroeste 0.1 -- -- 81
2020-01-21 12:00:00 5.6 15 Noroeste 26 Noroeste 2.6 -- -- 88
2020-01-21 11:00:00 5.3 14 Noroeste 31 Norte 1.3 -- -- 88
2020-01-21 10:00:00 5.8 16 Noroeste 32 Noroeste 2.4 -- -- 87
2020-01-21 09:00:00 5.8 14 Noroeste 30 Norte 1.1 -- -- 85
2020-01-21 08:00:00 5.6 9 Noroeste 30 Noroeste 1.4 -- -- 85
2020-01-21 07:00:00 5.9 12 Noroeste 29 Norte 1.8 -- -- 85
2020-01-21 06:00:00 5.4 14 Noroeste 31 Noroeste 1.6 -- -- 87
2020-01-21 05:00:00 5.5 12 Norte 32 Noroeste 1.8 -- -- 89
2020-01-21 04:00:00 6.1 14 Noroeste 35 Noroeste 2.2 -- -- 85
2020-01-21 03:00:00 6.2 14 Noroeste 30 Noroeste 0.4 -- -- 85
2020-01-21 02:00:00 6.2 15 Noroeste 31 Noroeste 0.6 -- -- 86
2020-01-21 01:00:00 6.4 9 Norte 36 Norte 0 -- -- 83
2020-01-21 00:00:00 6.4 11 Noroeste 24 Norte 0 -- -- 85
2020-01-20 23:00:00 5.9 6 Norte 26 Noroeste 0.2 -- -- 86
2020-01-20 22:00:00 5.8 8 Norte 21 Noroeste 0 -- -- 86
2020-01-20 21:00:00 5.4 6 Norte 17 Noroeste 0.2 -- -- 89
2020-01-20 20:00:00 5.2 6 Noroeste 20 Noroeste 1.1 -- -- 90
2020-01-20 19:00:00 5 9 Noroeste 21 Norte 0.5 -- -- 89
2020-01-20 18:00:00 5.5 7 Noroeste 18 Norte 3.2 -- -- 90
2020-01-20 17:00:00 5.7 8 Noroeste 19 Noroeste 0.8 -- -- 85
2020-01-20 16:00:00 6.2 11 Noroeste 27 Norte 0.2 -- -- 80
2020-01-20 15:00:00 6.2 13 Noroeste 28 Noroeste 0 -- -- 79
2020-01-20 14:00:00 5.6 13 Noroeste 33 Noroeste 0 -- -- 79
2020-01-20 13:00:00 5 16 Noroeste 31 Noroeste 0 -- -- 81
2020-01-20 12:00:00 4.5 13 Noroeste 29 Noroeste 0.4 -- -- 82
2020-01-20 11:00:00 4.5 0 Calma 31 Nordeste 0.8 -- -- 84
2020-01-20 10:00:00 4.1 3 Sudoeste 24 Nordeste 0 -- -- 84
2020-01-20 09:00:00 3.7 20 Noroeste 40 Noroeste 0.2 -- -- 79
2020-01-20 08:00:00 3.4 17 Noroeste 37 Noroeste 1.2 -- -- 83
2020-01-20 07:00:00 3.9 13 Norte 33 Noroeste 0 -- -- 78
2020-01-20 06:00:00 4.3 18 Norte 39 Noroeste 0 -- -- 77
2020-01-20 05:00:00 4.4 15 Norte 35 Norte 0 -- -- 77
2020-01-20 04:00:00 4.4 16 Norte 37 Noroeste 0 -- -- 78
2020-01-20 03:00:00 4.3 17 Norte 43 Noroeste 0.3 -- -- 80
2020-01-20 02:00:00 4.7 14 Norte 36 Noroeste 0 -- -- 80
2020-01-20 01:00:00 5 14 Norte 31 Norte 0 -- -- 80
2020-01-20 00:00:00 5 10 Norte 39 Noroeste 0 -- -- 81
2020-01-19 23:00:00 4.2 13 Norte 36 Noroeste 0 -- -- 86
2020-01-19 22:00:00 4 14 Noroeste 36 Noroeste 0.6 -- -- 86
2020-01-19 21:00:00 4.1 15 Noroeste 31 Norte 0.4 -- -- 83
2020-01-19 20:00:00 5.5 11 Norte 40 Noroeste 0 -- -- 70
2020-01-19 19:00:00 6.2 19 Noroeste 41 Noroeste 0 -- -- 67
2020-01-19 18:00:00 7 14 Norte 35 Noroeste 0 -- -- 65
2020-01-19 17:00:00 8.5 12 Norte 33 Noroeste 0 -- -- 64
2020-01-19 16:00:00 9.1 11 Norte 33 Noroeste 0 -- -- 66
2020-01-19 15:00:00 12.5 16 Norte 33 Norte 0 -- -- 49
2020-01-19 14:00:00 12.7 15 Norte 41 Noroeste 0 -- -- 46
2020-01-19 13:00:00 12.8 20 Noroeste 40 Noroeste 0 -- -- 45
2020-01-19 12:00:00 12.1 21 Noroeste 42 Noroeste 0.3 -- -- 47
2020-01-19 11:00:00 10.7 13 Noroeste 25 Noroeste 0 -- -- 55
2020-01-19 10:00:00 9.8 13 Noroeste 23 Noroeste 0 -- -- 59
2020-01-19 09:00:00 8 0 Calma 18 Noroeste 0 -- -- 68
2020-01-19 08:00:00 7.1 0 Calma 20 Noroeste 0 -- -- 70
2020-01-19 07:00:00 9.6 13 Noroeste 26 Noroeste 0 -- -- 62
2020-01-19 06:00:00 9.4 6 Noroeste 16 Noroeste 0 -- -- 70
2020-01-19 05:00:00 7.2 5 Norte 17 Noroeste 0 -- -- 92
2020-01-19 04:00:00 4.9 0 Calma 6 Este 0 -- -- 95
2020-01-19 03:00:00 5.4 0 Calma 8 Noroeste 0 -- -- 95
2020-01-19 02:00:00 5.2 2 Sur 8 Sudoeste 0 -- -- 95
2020-01-19 01:00:00 5.5 3 Norte 8 Sur 0 -- -- 95
2020-01-19 00:00:00 5.8 4 Norte 8 Norte 0 -- -- 94
2020-01-18 23:00:00 6.7 2 Oeste 8 Norte 0 -- -- 93
2020-01-18 22:00:00 6.6 2 Noroeste 5 Norte 0 -- -- 93
2020-01-18 21:00:00 7 0 Calma 6 Noroeste 0 -- -- 92
2020-01-18 20:00:00 8.6 2 Sudoeste 8 Noroeste 0 -- -- 90
2020-01-18 19:00:00 8.8 0 Calma 13 Sudoeste 0 -- -- 88
2020-01-18 18:00:00 10.3 4 Sudoeste 17 Sudoeste 0 -- -- 83
2020-01-18 17:00:00 11.7 7 Sudoeste 17 Sudoeste 0 -- -- 79
2020-01-18 16:00:00 11.6 7 Sudoeste 17 Sudoeste 0 -- -- 79
2020-01-18 15:00:00 11.1 5 Sudoeste 8 Sudoeste 0 -- -- 83
2020-01-18 14:00:00 10.5 2 Sudoeste 6 Oeste 0 -- -- 84
2020-01-18 13:00:00 9.2 0 Calma 6 Nordeste 0.1 -- -- 90
2020-01-18 12:00:00 8.4 0 Calma 13 Sudoeste 0.5 -- -- 90
2020-01-18 11:00:00 8.9 2 Norte 12 Noroeste 0.3 -- -- 84
2020-01-18 10:00:00 8.5 0 Calma 10 Noroeste 0 -- -- 77
2020-01-18 09:00:00 6.5 2 Sudoeste 6 Sudoeste 0 -- -- 82
2020-01-18 08:00:00 6.6 0 Calma 10 Noroeste 0 -- -- 79
2020-01-18 07:00:00 8.2 4 Noroeste 12 Noroeste 0 -- -- 73
2020-01-18 06:00:00 6.9 2 Norte 5 Oeste 0 -- -- 78
2020-01-18 05:00:00 6.9 2 Oeste 12 Noroeste 0 -- -- 77
2020-01-18 04:00:00 8.2 4 Norte 11 Noroeste 0 -- -- 72
2020-01-18 03:00:00 8 2 Sudoeste 16 Noroeste 0 -- -- 73
2020-01-18 02:00:00 7.9 4 Noroeste 15 Noroeste 0 -- -- 77
2020-01-18 01:00:00 9.8 4 Norte 13 Norte 0 -- -- 65
2020-01-18 00:00:00 10 4 Noroeste 10 Norte 0 -- -- 66
2020-01-17 23:00:00 8.2 0 Calma 5 Sudoeste 0 -- -- 77
2020-01-17 22:00:00 8.7 0 Calma 11 Noroeste 0 -- -- 73
2020-01-17 21:00:00 8.8 0 Calma 4 Noroeste 0 -- -- 71
2020-01-17 20:00:00 10.1 0 Calma 3 Nordeste 0 -- -- 64
2020-01-17 19:00:00 12.9 0 Calma 9 Norte 0 -- -- 54
2020-01-17 18:00:00 15.5 0 Calma 14 Nordeste 0 -- -- 47
2020-01-17 17:00:00 19.2 5 Norte 15 Noroeste 0 -- -- 36
2020-01-17 16:00:00 19.9 7 Noroeste 16 Norte 0 -- -- 36
2020-01-17 15:00:00 19.6 6 Noroeste 17 Noroeste 0 -- -- 36
2020-01-17 14:00:00 18.8 6 Oeste 19 Noroeste 0 -- -- 38
2020-01-17 13:00:00 18.1 3 Sur 11 Sudoeste 0 -- -- 40
2020-01-17 12:00:00 14.8 6 Sudoeste 12 Sudoeste 0.4 -- -- 47
2020-01-17 11:00:00 11.4 3 Sudoeste 8 Sudoeste 0 -- -- 59
2020-01-17 10:00:00 8.2 2 Sudoeste 6 Noroeste 0 -- -- 67
2020-01-17 09:00:00 5.5 3 Sudoeste 11 Sudoeste 0 -- -- 72
2020-01-17 08:00:00 4 0 Calma 8 Noroeste 0 -- -- 79
2020-01-17 07:00:00 3.5 0 Calma 6 Sudoeste 0 -- -- 83
2020-01-17 06:00:00 4.3 4 Oeste 17 Noroeste 0 -- -- 77
2020-01-17 05:00:00 4.6 6 Nordeste 11 Norte 0 -- -- 76
2020-01-17 04:00:00 4.5 5 Noroeste 10 Noroeste 0 -- -- 78
2020-01-17 03:00:00 3.5 0 Calma 9 Sur 0 -- -- 86
2020-01-17 02:00:00 3.7 0 Calma 8 Noroeste 0 -- -- 84
2020-01-17 01:00:00 4.2 0 Calma 7 Noroeste 0 -- -- 83
2020-01-17 00:00:00 4.5 0 Calma 7 Noroeste 0 -- -- 82
2020-01-16 23:00:00 5.6 2 Sudeste 7 Norte 0 -- -- 79
2020-01-16 22:00:00 5.8 0 Calma 4 Sudeste 0 -- -- 76
2020-01-16 21:00:00 7.7 0 Calma 4 Norte 0 -- -- 69
2020-01-16 20:00:00 9.4 0 Calma 10 Sudoeste 0 -- -- 60
2020-01-16 19:00:00 11.1 5 Sudoeste 14 Sudoeste 0 -- -- 55
2020-01-16 18:00:00 13.7 5 Sudoeste 13 Sur 0 -- -- 49
2020-01-16 17:00:00 16.8 6 Sur 15 Sudoeste 0 -- -- 45
2020-01-16 16:00:00 17.8 7 Sur 18 Sudeste 0 -- -- 41
2020-01-16 15:00:00 18.2 5 Sur 12 Sudeste 0 -- -- 37
2020-01-16 14:00:00 17.3 5 Sudoeste 9 Sudoeste 0 -- -- 39
2020-01-16 13:00:00 16 3 Sudoeste 7 Sudoeste 0 -- -- 41
2020-01-16 12:00:00 13.8 2 Sur 4 Sudoeste 0 -- -- 46
2020-01-16 11:00:00 9.9 0 Calma 4 Sudoeste 0 -- -- 58
2020-01-16 10:00:00 4.2 0 Calma 5 Sur 0 -- -- 78
2020-01-16 09:00:00 2.1 2 Sur 12 Noroeste 0 -- -- 80
2020-01-16 08:00:00 3.1 4 Noroeste 10 Noroeste 0 -- -- 73
2020-01-16 07:00:00 2.1 2 Norte 9 Sudoeste 0 -- -- 83
2020-01-16 06:00:00 3.1 4 Oeste 20 Noroeste 0 -- -- 80
2020-01-16 05:00:00 3 0 Calma 8 Noroeste 0 -- -- 83
2020-01-16 04:00:00 2.6 0 Calma 4 Noroeste 0 -- -- 88
2020-01-16 03:00:00 2.8 0 Calma 7 Oeste 0 -- -- 86
2020-01-16 02:00:00 3.5 2 Sudoeste 4 Sudoeste 0 -- -- 82
2020-01-16 01:00:00 4.4 0 Calma 7 Noroeste 0 -- -- 77
2020-01-16 00:00:00 5.3 3 Noroeste 10 Norte 0 -- -- 74
2020-01-15 23:00:00 5 2 Noroeste 7 Norte 0 -- -- 79
2020-01-15 22:00:00 6.3 4 Norte 10 Noroeste 0 -- -- 75
2020-01-15 21:00:00 6.6 0 Calma 6 Oeste 0 -- -- 73
2020-01-15 20:00:00 9.1 3 Sudoeste 7 Sudoeste 0 -- -- 64
2020-01-15 19:00:00 10.5 3 Sudoeste 8 Sudoeste 0 -- -- 59
2020-01-15 18:00:00 12.8 4 Sur 14 Sur 0 -- -- 46
2020-01-15 17:00:00 15.4 6 Sur 16 Sudoeste 0 -- -- 40
2020-01-15 16:00:00 16.5 7 Sur 14 Sudeste 0 -- -- 39
2020-01-15 15:00:00 15.9 7 Sudoeste 15 Sudoeste 0 -- -- 41
2020-01-15 14:00:00 15.1 6 Sudoeste 12 Sudoeste 0 -- -- 43
2020-01-15 13:00:00 13.7 2 Sudoeste 6 Sudoeste 0 -- -- 51
2020-01-15 12:00:00 10.7 3 Sudoeste 6 Sudoeste 0 -- -- 59
2020-01-15 11:00:00 8.1 3 Sudoeste 7 Sudoeste 0 -- -- 68
2020-01-15 10:00:00 6 2 Sudoeste 12 Noroeste 0 -- -- 72
2020-01-15 09:00:00 4.9 5 Noroeste 13 Noroeste 0 -- -- 76
2020-01-15 08:00:00 3.5 2 Oeste 10 Sudoeste 0 -- -- 81
2020-01-15 07:00:00 2.8 4 Sudoeste 21 Noroeste 0 -- -- 81
2020-01-15 06:00:00 6 14 Noroeste 24 Noroeste 0 -- -- 70
2020-01-15 05:00:00 3.4 3 Oeste 14 Noroeste 0 -- -- 80
2020-01-15 04:00:00 3.1 0 Calma 11 Sudoeste 0 -- -- 80
2020-01-15 03:00:00 5.6 6 Noroeste 15 Noroeste 0 -- -- 71
2020-01-15 02:00:00 5.5 4 Noroeste 13 Oeste 0 -- -- 76
2020-01-15 01:00:00 3.7 0 Calma 6 Oeste 0 -- -- 85
2020-01-15 00:00:00 4.1 0 Calma 5 Noroeste 0 -- -- 86
2020-01-14 23:00:00 4.7 3 Noroeste 5 Noroeste 0 -- -- 85
2020-01-14 22:00:00 5.7 2 Oeste 12 Norte 0 -- -- 78
2020-01-14 21:00:00 6.8 4 Norte 8 Norte 0 -- -- 72
2020-01-14 20:00:00 7.3 0 Calma 4 Sudoeste 0 -- -- 76
2020-01-14 19:00:00 9.1 0 Calma 6 Sudoeste 0 -- -- 67
2020-01-14 18:00:00 10.8 3 Sudoeste 9 Sudoeste 0 -- -- 54
2020-01-14 17:00:00 12.5 4 Sudoeste 14 Sur 0 -- -- 47
2020-01-14 16:00:00 14.3 5 Sur 14 Sur 0 -- -- 39
2020-01-14 15:00:00 15.4 4 Sur 12 Sudeste 0 -- -- 39
2020-01-14 14:00:00 14.7 5 Sur 11 Sudoeste 0 -- -- 40
2020-01-14 13:00:00 13.2 3 Oeste 7 Sudoeste 0 -- -- 42
2020-01-14 12:00:00 10.3 3 Sudoeste 7 Oeste 0 -- -- 50
2020-01-14 11:00:00 7.9 2 Sudoeste 5 Sudoeste 0 -- -- 61
2020-01-14 10:00:00 3 0 Calma 9 Sudoeste 0 -- -- 79
2020-01-14 09:00:00 -0.2 0 Calma 5 Nordeste 0 -- -- 85
2020-01-14 08:00:00 0.8 2 Oeste 8 Oeste 0 -- -- 82
2020-01-14 07:00:00 0.7 0 Calma 9 Oeste 0 -- -- 86
2020-01-14 06:00:00 3.3 4 Noroeste 14 Noroeste 0 -- -- 72
2020-01-14 05:00:00 1 0 Calma 8 Sudoeste 0 -- -- 91
2020-01-14 04:00:00 2.2 2 Sudoeste 12 Noroeste 0 -- -- 88
2020-01-14 03:00:00 1.9 0 Calma 8 Sudoeste 0 -- -- 95
2020-01-14 02:00:00 1.9 0 Calma 8 Norte 0 -- -- 95
2020-01-14 01:00:00 2.3 0 Calma 4 Oeste 0 -- -- 93
2020-01-14 00:00:00 3.5 0 Calma 5 Norte 0 -- -- 92
2020-01-13 23:00:00 4.3 0 Calma 7 Noroeste 0 -- -- 92
2020-01-13 22:00:00 5.9 3 Norte 6 Norte 0 -- -- 89
2020-01-13 21:00:00 5.9 0 Calma 3 Norte 0 -- -- 88
2020-01-13 20:00:00 7.5 0 Calma 5 Oeste 0 -- -- 84
2020-01-13 19:00:00 9.4 2 Sudoeste 9 Sudoeste 0 -- -- 80
2020-01-13 18:00:00 10.8 8 Sudoeste 14 Sudoeste 0 -- -- 73
2020-01-13 17:00:00 12.7 6 Sur 16 Sur 0 -- -- 67
2020-01-13 16:00:00 13.1 8 Sur 17 Sur 0 -- -- 62
2020-01-13 15:00:00 13.8 7 Sur 17 Sudeste 0 -- -- 48
2020-01-13 14:00:00 13.8 6 Sudoeste 14 Sudoeste 0 -- -- 48
2020-01-13 13:00:00 13.3 3 Sur 12 Sudeste 0 -- -- 52
2020-01-13 12:00:00 10.7 3 Sudoeste 10 Sudoeste 0 -- -- 59
2020-01-13 11:00:00 7.7 0 Calma 7 Nordeste 0 -- -- 66
2020-01-13 10:00:00 2.1 0 Calma 4 Oeste 0 -- -- 89
2020-01-13 09:00:00 -0.9 0 Calma 4 Noroeste 0 -- -- 93
2020-01-13 08:00:00 -1.1 0 Calma 9 Noroeste 0 -- -- 92
2020-01-13 07:00:00 -0.4 0 Calma 6 Noroeste 0 -- -- 92
2020-01-13 06:00:00 -0.1 2 Sudoeste 3 Sudoeste 0 -- -- 92
2020-01-13 05:00:00 0.2 2 Oeste 4 Oeste 0 -- -- 91
2020-01-13 04:00:00 0.5 0 Calma 4 Norte 0 -- -- 88
2020-01-13 03:00:00 1.2 0 Calma 3 Noroeste 0 -- -- 86
2020-01-13 02:00:00 2.2 0 Calma 7 Noroeste 0 -- -- 85
2020-01-13 01:00:00 3 2 Noroeste 12 Nordeste 0 -- -- 83
2020-01-13 00:00:00 4.4 5 Norte 10 Norte 0 -- -- 76
2020-01-12 23:00:00 4.4 4 Norte 9 Nordeste 0 -- -- 75
2020-01-12 22:00:00 6 0 Calma 9 Nordeste 0 -- -- 74
2020-01-12 21:00:00 6.8 6 Norte 13 Norte 0 -- -- 67
2020-01-12 20:00:00 7.4 2 Oeste 4 Sur 0 -- -- 73
2020-01-12 19:00:00 9.6 3 Sudoeste 6 Oeste 0 -- -- 62
2020-01-12 18:00:00 12.2 0 Calma 9 Sur 0 -- -- 52
2020-01-12 17:00:00 16 4 Sur 9 Este 0 -- -- 40
2020-01-12 16:00:00 16.3 3 Sudeste 9 Nordeste 0 -- -- 35
2020-01-12 15:00:00 16.8 3 Sudeste 13 Sudeste 0 -- -- 36
2020-01-12 14:00:00 16.3 2 Sudoeste 7 Sudoeste 0 -- -- 37
2020-01-12 13:00:00 14.1 4 Sur 7 Sudeste 0 -- -- 42
2020-01-12 12:00:00 11.5 5 Sudoeste 8 Sudoeste 0 -- -- 50
2020-01-12 11:00:00 8.5 0 Calma 5 Sudoeste 0 -- -- 62
2020-01-12 10:00:00 2.8 0 Calma 5 Sudoeste 0 -- -- 86
2020-01-12 09:00:00 0.7 2 Sur 4 Sur 0 -- -- 92
2020-01-12 08:00:00 0.5 0 Calma 6 Oeste 0 -- -- 89
2020-01-12 07:00:00 2.3 3 Norte 14 Noroeste 0 -- -- 79
2020-01-12 06:00:00 1 0 Calma 8 Noroeste 0 -- -- 89
2020-01-12 05:00:00 2.3 3 Norte 7 Noroeste 0 -- -- 83
2020-01-12 04:00:00 3 4 Noroeste 12 Noroeste 0 -- -- 79
2020-01-12 03:00:00 1.6 0 Calma 4 Norte 0 -- -- 89
2020-01-12 02:00:00 3.2 4 Sudoeste 6 Oeste 0 -- -- 86
2020-01-12 01:00:00 2.8 0 Calma 3 Noroeste 0 -- -- 84
2020-01-12 00:00:00 4 0 Calma 8 Noroeste 0 -- -- 79
2020-01-11 23:00:00 4.7 3 Noroeste 12 Norte 0 -- -- 78
2020-01-11 22:00:00 6.3 4 Norte 9 Norte 0 -- -- 71
2020-01-11 21:00:00 7.6 0 Calma 10 Nordeste 0 -- -- 76
2020-01-11 20:00:00 8.6 8 Nordeste 12 Nordeste 0 -- -- 68
2020-01-11 19:00:00 8.7 0 Calma 3 Norte 0 -- -- 59
2020-01-11 18:00:00 12.1 0 Calma 9 Nordeste 0 -- -- 48
2020-01-11 17:00:00 14.4 2 Este 12 Nordeste 0 -- -- 44
2020-01-11 16:00:00 15.3 3 Este 13 Sudeste 0 -- -- 42
2020-01-11 15:00:00 15.3 5 Este 15 Nordeste 0 -- -- 42
2020-01-11 14:00:00 15.3 4 Este 13 Sudeste 0 -- -- 43
2020-01-11 13:00:00 14.4 2 Este 10 Nordeste 0 -- -- 48
2020-01-11 12:00:00 13.7 2 Este 19 Nordeste 0 -- -- 52
2020-01-11 11:00:00 11.4 6 Noroeste 22 Noroeste 0 -- -- 56
2020-01-11 10:00:00 9.9 10 Noroeste 21 Noroeste 0 -- -- 60
2020-01-11 09:00:00 8.4 9 Noroeste 20 Noroeste 0 -- -- 62
2020-01-11 08:00:00 8.7 10 Noroeste 22 Noroeste 0 -- -- 62
2020-01-11 07:00:00 8.6 7 Noroeste 22 Noroeste 0 -- -- 64
2020-01-11 06:00:00 8.6 11 Noroeste 27 Noroeste 0 -- -- 66
2020-01-11 05:00:00 8.6 12 Noroeste 29 Noroeste 0 -- -- 67
2020-01-11 04:00:00 9.2 10 Norte 24 Noroeste 0 -- -- 62
2020-01-11 03:00:00 9.1 9 Noroeste 19 Noroeste 0 -- -- 61
2020-01-11 02:00:00 9 8 Norte 22 Norte 0 -- -- 62
2020-01-11 01:00:00 9.4 8 Norte 23 Norte 0 -- -- 60
2020-01-11 00:00:00 9.5 11 Norte 27 Norte 0 -- -- 61
2020-01-10 23:00:00 9.3 10 Norte 26 Noroeste 0 -- -- 60
2020-01-10 22:00:00 9.5 10 Noroeste 23 Noroeste 0 -- -- 56
2020-01-10 21:00:00 10.2 5 Norte 17 Norte 0 -- -- 48
2020-01-10 20:00:00 8.9 5 Norte 11 Norte 0 -- -- 52
2020-01-10 19:00:00 10.2 6 Norte 15 Norte 0 -- -- 48
2020-01-10 18:00:00 12 8 Norte 22 Norte 0 -- -- 45
2020-01-10 17:00:00 13.9 9 Norte 25 Nordeste 0 -- -- 42
2020-01-10 16:00:00 14.5 9 Nordeste 24 Nordeste 0 -- -- 45
2020-01-10 15:00:00 13.9 5 Nordeste 18 Nordeste 0 -- -- 50
2020-01-10 14:00:00 14 8 Nordeste 25 Norte 0 -- -- 48
2020-01-10 13:00:00 13.7 13 Norte 32 Norte 0 -- -- 52
2020-01-10 12:00:00 13 10 Noroeste 28 Noroeste 0 -- -- 52
2020-01-10 11:00:00 12 13 Noroeste 27 Noroeste 0 -- -- 54
2020-01-10 10:00:00 9.5 16 Noroeste 28 Noroeste 0 -- -- 64
2020-01-10 09:00:00 6.3 2 Noroeste 16 Noroeste 0 -- -- 76
2020-01-10 08:00:00 7.2 6 Norte 22 Noroeste 0 -- -- 71
2020-01-10 07:00:00 8.1 7 Noroeste 20 Noroeste 0 -- -- 68
2020-01-10 06:00:00 4.9 3 Oeste 9 Oeste 0 -- -- 92
2020-01-10 05:00:00 4 0 Calma 4 Norte 0 -- -- 92
2020-01-10 04:00:00 5 0 Calma 5 Noroeste 0 -- -- 91
2020-01-10 03:00:00 6.6 4 Norte 8 Norte 0 -- -- 88
2020-01-10 02:00:00 5.4 0 Calma 6 Sudoeste 0 -- -- 91
2020-01-10 01:00:00 7.1 4 Nordeste 9 Norte 0 -- -- 86
2020-01-10 00:00:00 8.3 5 Norte 12 Noroeste 0 -- -- 85
2020-01-09 23:00:00 7 0 Calma 4 Noroeste 0 -- -- 88
2020-01-09 22:00:00 8 0 Calma 4 Noroeste 0 -- -- 87
2020-01-09 21:00:00 8.5 0 Calma 7 Sudoeste 0 -- -- 85
2020-01-09 20:00:00 9 2 Sudoeste 9 Sudoeste 0 -- -- 83
2020-01-09 19:00:00 9.7 4 Sudoeste 9 Sudoeste 0 -- -- 78
2020-01-09 18:00:00 11.2 5 Sudoeste 14 Sudoeste 0 -- -- 71
2020-01-09 17:00:00 13.5 6 Sur 15 Sur 0 -- -- 60
2020-01-09 16:00:00 14.8 4 Sur 18 Sur 0 -- -- 54
2020-01-09 15:00:00 14.7 7 Sur 17 Sudeste 0 -- -- 54
2020-01-09 14:00:00 14.2 6 Sur 14 Sudeste 0 -- -- 57
2020-01-09 13:00:00 13.4 2 Sudeste 8 Sudeste 0 -- -- 60
2020-01-09 12:00:00 11.9 0 Calma 8 Sudoeste 0 -- -- 65
2020-01-09 11:00:00 9.6 2 Sudeste 6 Noroeste 0 -- -- 72
2020-01-09 10:00:00 5.8 2 Noroeste 7 Noroeste 0 -- -- 86
2020-01-09 09:00:00 4.4 2 Oeste 15 Noroeste 0 -- -- 87
2020-01-09 08:00:00 5.3 6 Noroeste 15 Noroeste 0 -- -- 81
2020-01-09 07:00:00 6.4 2 Norte 18 Noroeste 0 -- -- 78
2020-01-09 06:00:00 6.5 7 Norte 15 Noroeste 0 -- -- 78
2020-01-09 05:00:00 6.5 2 Noroeste 12 Noroeste 0 -- -- 83
2020-01-09 04:00:00 5.8 4 Norte 15 Noroeste 0 -- -- 79
2020-01-09 03:00:00 6.8 6 Norte 16 Noroeste 0 -- -- 76
2020-01-09 02:00:00 6.4 5 Norte 16 Noroeste 0 -- -- 78
2020-01-09 01:00:00 6.3 6 Norte 13 Noroeste 0 -- -- 80
2020-01-09 00:00:00 6.7 0 Calma 6 Norte 0 -- -- 84
2020-01-08 23:00:00 6.5 3 Norte 11 Noroeste 0 -- -- 81
2020-01-08 22:00:00 6.5 5 Norte 10 Nordeste 0 -- -- 82
2020-01-08 21:00:00 7.5 4 Norte 9 Norte 0 -- -- 80
2020-01-08 20:00:00 8.4 0 Calma 11 Nordeste 0 -- -- 77
2020-01-08 19:00:00 9.7 7 Nordeste 11 Nordeste 0 -- -- 78
2020-01-08 18:00:00 11.3 0 Calma 12 Este 0 -- -- 67
2020-01-08 17:00:00 13.6 3 Nordeste 14 Nordeste 0 -- -- 59
2020-01-08 16:00:00 14.5 4 Este 15 Nordeste 0 -- -- 50
2020-01-08 15:00:00 14.9 5 Este 21 Nordeste 0 -- -- 46
2020-01-08 14:00:00 14.2 7 Nordeste 22 Nordeste 0 -- -- 46
2020-01-08 13:00:00 13.8 7 Nordeste 18 Nordeste 0 -- -- 43
2020-01-08 12:00:00 12.3 4 Nordeste 9 Nordeste 0 -- -- 52
2020-01-08 11:00:00 9.1 2 Sur 4 Sudeste 0 -- -- 72
2020-01-08 10:00:00 3 0 Calma 5 Sudoeste 0 -- -- 92
2020-01-08 09:00:00 1.4 0 Calma 6 Norte 0 -- -- 95
2020-01-08 08:00:00 1.2 0 Calma 5 Noroeste 0 -- -- 96
2020-01-08 07:00:00 1.2 2 Oeste 5 Sur 0 -- -- 95
2020-01-08 06:00:00 1.3 2 Oeste 5 Noroeste 0 -- -- 95
2020-01-08 05:00:00 1.8 0 Calma 4 Sudeste 0 -- -- 96
2020-01-08 04:00:00 1.4 0 Calma 4 Norte 0 -- -- 96
2020-01-08 03:00:00 1.8 0 Calma 4 Sudoeste 0 -- -- 95
2020-01-08 02:00:00 1.9 0 Calma 5 Sudoeste 0 -- -- 95
2020-01-08 01:00:00 3 0 Calma 3 Sur 0 -- -- 95
2020-01-08 00:00:00 3.7 0 Calma 3 Nordeste 0 -- -- 95
2020-01-07 23:00:00 4.1 0 Calma 3 Este 0 -- -- 90
2020-01-07 22:00:00 6 0 Calma 5 Nordeste 0 -- -- 89
2020-01-07 21:00:00 7.2 3 Nordeste 5 Noroeste 0 -- -- 90
2020-01-07 20:00:00 8.2 0 Calma 7 Sudoeste 0 -- -- 87
2020-01-07 19:00:00 9.5 3 Sudoeste 10 Sudoeste 0 -- -- 84
2020-01-07 18:00:00 11.6 5 Sudoeste 12 Sudoeste 0 -- -- 76
2020-01-07 17:00:00 14.4 6 Sudoeste 15 Sudoeste 0 -- -- 56
2020-01-07 16:00:00 15.8 5 Sur 13 Sur 0 -- -- 53
2020-01-07 15:00:00 16.1 3 Sur 11 Sudeste 0 -- -- 48
2020-01-07 14:00:00 14.7 3 Sur 8 Sur 0 -- -- 46
2020-01-07 13:00:00 13.5 2 Sudeste 8 Nordeste 0 -- -- 46
2020-01-07 12:00:00 12 0 Calma 4 Nordeste 0 -- -- 46
2020-01-07 11:00:00 8.8 0 Calma 5 Sudoeste 0 -- -- 65
2020-01-07 10:00:00 2.8 0 Calma 6 Sudoeste 0 -- -- 90
2020-01-07 09:00:00 0.7 2 Sur 5 Norte 0 -- -- 91
2020-01-07 08:00:00 -0.2 0 Calma 6 Noroeste 0 -- -- 94
2020-01-07 07:00:00 0.6 0 Calma 5 Oeste 0 -- -- 93
2020-01-07 06:00:00 0.6 0 Calma 4 Sudeste 0 -- -- 93
2020-01-07 05:00:00 1.4 0 Calma 4 Sudeste 0 -- -- 91
2020-01-07 04:00:00 3.2 3 Noroeste 12 Noroeste 0 -- -- 85
2020-01-07 03:00:00 1.8 4 Oeste 6 Oeste 0 -- -- 91
2020-01-07 02:00:00 2 0 Calma 3 Sur 0 -- -- 92
2020-01-07 01:00:00 2.8 2 Noroeste 4 Noroeste 0 -- -- 92
2020-01-07 00:00:00 3.4 0 Calma 5 Noroeste 0 -- -- 91
2020-01-06 23:00:00 4.5 2 Noroeste 8 Nordeste 0 -- -- 88
2020-01-06 22:00:00 5.6 0 Calma 5 Nordeste 0 -- -- 87
2020-01-06 21:00:00 7 2 Norte 5 Noroeste 0 -- -- 85
2020-01-06 20:00:00 7.9 4 Sudoeste 9 Sudoeste 0 -- -- 82
2020-01-06 19:00:00 9.3 3 Sudoeste 11 Sudoeste 0 -- -- 77
2020-01-06 18:00:00 11.3 3 Sudoeste 12 Sudoeste 0 -- -- 70
2020-01-06 17:00:00 14.2 5 Sur 12 Sur 0 -- -- 55
2020-01-06 16:00:00 15.2 5 Sur 10 Sudoeste 0 -- -- 48
2020-01-06 15:00:00 15.7 0 Calma 8 Sudoeste 0 -- -- 46
2020-01-06 14:00:00 14.3 3 Sur 8 Sur 0 -- -- 44
2020-01-06 13:00:00 13.9 0 Calma 5 Este 0 -- -- 45
2020-01-06 12:00:00 11.1 0 Calma 5 Sur 0 -- -- 56
2020-01-06 11:00:00 8.2 0 Calma 3 Sudoeste 0 -- -- 69
2020-01-06 10:00:00 2.7 0 Calma 4 Noroeste 0 -- -- 93